Time;durP1;ratioP1;P1;durP2;ratioP2;P2;SDS_P1;SDS_P2;PMS_P1;PMS_P2;Temp;Humidity;BMP_temperature;BMP_pressure;BME280_temperature;BME280_humidity;BME280_pressure;Samples;Min_cycle;Max_cycle;Signal;HPM_P1;HPM_P2
2022/12/10 00:01:27;;;;;;;15.80;5.30;;;2.60;99.90;;;;;;5007812;28;20043;-89
2022/12/10 00:03:53;;;;;;;14.00;5.65;;;2.60;99.90;;;;;;4985020;28;20110;-89
2022/12/10 00:06:23;;;;;;;11.75;4.95;;;2.60;99.90;;;;;;4973763;28;20549;-89
2022/12/10 00:08:49;;;;;;;13.05;4.72;;;2.60;99.90;;;;;;5022627;28;20297;-89
2022/12/10 00:11:16;;;;;;;13.97;5.33;;;2.60;99.90;;;;;;4994311;28;20063;-89
2022/12/10 00:13:43;;;;;;;13.27;4.63;;;2.60;99.90;;;;;;4981823;28;20296;-89
2022/12/10 00:16:10;;;;;;;12.05;4.68;;;2.70;99.90;;;;;;5014592;28;20057;-89
2022/12/10 00:18:37;;;;;;;13.32;5.30;;;2.60;99.90;;;;;;5012126;28;21232;-88
2022/12/10 00:21:04;;;;;;;12.88;5.05;;;2.60;99.90;;;;;;5011190;28;20017;-89
2022/12/10 00:23:32;;;;;;;14.60;5.40;;;2.70;99.90;;;;;;4979491;28;20052;-89
2022/12/10 00:26:12;;;;;;;14.60;5.55;;;2.70;99.90;;;;;;5000556;28;20056;-88
2022/12/10 00:28:40;;;;;;;13.50;5.20;;;2.70;99.90;;;;;;5002462;28;20522;-89
2022/12/10 00:31:11;;;;;;;13.55;5.05;;;2.70;99.90;;;;;;5011903;28;20175;-88
2022/12/10 00:33:38;;;;;;;15.18;5.18;;;2.70;99.90;;;;;;5025079;28;20111;-88
2022/12/10 00:36:10;;;;;;;14.83;5.07;;;2.70;99.90;;;;;;4985056;28;20021;-88
2022/12/10 00:38:37;;;;;;;14.30;5.13;;;2.60;99.90;;;;;;4986799;28;21641;-88
2022/12/10 00:41:03;;;;;;;15.13;5.40;;;2.60;99.90;;;;;;4981735;28;20067;-88
2022/12/10 00:43:30;;;;;;;15.98;5.88;;;2.60;99.90;;;;;;4998350;28;20440;-89
2022/12/10 00:45:55;;;;;;;12.88;5.60;;;2.60;99.90;;;;;;4986453;28;20658;-89
2022/12/10 00:48:21;;;;;;;17.13;6.30;;;2.50;99.90;;;;;;5027847;28;20032;-89
2022/12/10 00:51:14;;;;;;;14.80;4.90;;;2.50;99.90;;;;;;5004466;28;20754;-89
2022/12/10 00:53:42;;;;;;;12.77;4.70;;;2.50;99.90;;;;;;4987319;28;20116;-88
2022/12/10 00:56:09;;;;;;;14.37;5.20;;;2.50;99.90;;;;;;4985489;28;20406;-89
2022/12/10 00:58:36;;;;;;;15.82;5.72;;;2.50;99.90;;;;;;4985949;28;20116;-88
2022/12/10 01:01:09;;;;;;;16.98;5.53;;;2.50;99.90;;;;;;4996471;28;20495;-88
2022/12/10 01:03:35;;;;;;;15.13;5.95;;;2.50;99.90;;;;;;5012946;28;20033;-88
2022/12/10 01:06:13;;;;;;;17.52;6.22;;;2.50;99.90;;;;;;5014020;28;20155;-89
2022/12/10 01:08:39;;;;;;;13.87;5.20;;;2.50;99.90;;;;;;4990661;28;20057;-88
2022/12/10 01:11:06;;;;;;;16.38;6.07;;;2.50;99.90;;;;;;4981967;28;20247;-89
2022/12/10 01:13:32;;;;;;;16.90;6.22;;;2.50;99.90;;;;;;4971355;28;20020;-89
2022/12/10 01:16:01;;;;;;;16.52;6.55;;;2.50;99.90;;;;;;5030643;28;20259;-89
2022/12/10 01:18:27;;;;;;;16.77;6.20;;;2.50;99.90;;;;;;4994179;28;20018;-89
2022/12/10 01:20:53;;;;;;;14.87;5.20;;;2.50;99.90;;;;;;4998266;28;20028;-89
2022/12/10 01:23:19;;;;;;;18.40;5.85;;;2.40;99.90;;;;;;4968708;28;20035;-89
2022/12/10 01:25:45;;;;;;;16.50;5.73;;;2.40;99.90;;;;;;5015527;28;20289;-89
2022/12/10 01:28:11;;;;;;;18.33;6.53;;;2.40;99.90;;;;;;4977872;28;20018;-89
2022/12/10 01:30:37;;;;;;;15.35;6.10;;;2.40;99.90;;;;;;5010765;28;20040;-89
2022/12/10 01:33:02;;;;;;;17.93;6.93;;;2.40;99.90;;;;;;4991507;28;20078;-89
2022/12/10 01:35:28;;;;;;;18.10;6.47;;;2.30;99.90;;;;;;5018338;28;20231;-89
2022/12/10 01:37:54;;;;;;;18.93;7.23;;;2.40;99.90;;;;;;5011005;28;20284;-88
2022/12/10 01:40:20;;;;;;;17.35;6.28;;;2.30;99.90;;;;;;4964233;28;20320;-89
2022/12/10 01:42:45;;;;;;;17.07;6.20;;;2.30;99.90;;;;;;4989113;28;20636;-89
2022/12/10 01:45:12;;;;;;;16.70;5.50;;;2.30;99.90;;;;;;4984115;28;20489;-89
2022/12/10 01:47:38;;;;;;;18.90;6.25;;;2.30;99.90;;;;;;4999612;28;20028;-89
2022/12/10 01:50:06;;;;;;;14.83;5.40;;;2.30;99.90;;;;;;4994685;28;20032;-88
2022/12/10 01:52:32;;;;;;;16.90;5.80;;;2.30;99.90;;;;;;4985636;28;20056;-89
2022/12/10 01:54:58;;;;;;;15.43;6.32;;;2.30;99.90;;;;;;4978959;28;20117;-89
2022/12/10 01:57:27;;;;;;;20.17;6.57;;;2.40;99.90;;;;;;4988192;28;20762;-89
2022/12/10 01:59:56;;;;;;;14.02;5.03;;;2.40;99.90;;;;;;5011304;28;20017;-89
2022/12/10 02:02:43;;;;;;;16.13;6.05;;;2.40;99.90;;;;;;4986275;28;20538;-85
2022/12/10 02:05:29;;;;;;;17.05;6.15;;;2.40;99.90;;;;;;4994187;28;20486;-85
2022/12/10 02:08:17;;;;;;;16.38;6.40;;;2.40;99.90;;;;;;4992727;28;20792;-85
2022/12/10 02:11:20;;;;;;;17.53;5.73;;;2.40;99.90;;;;;;4985207;28;20550;-85
2022/12/10 02:14:23;;;;;;;15.65;5.25;;;2.40;99.90;;;;;;5002523;28;20079;-85
2022/12/10 02:17:02;;;;;;;17.67;5.43;;;2.50;99.90;;;;;;4953984;28;20088;-85
2022/12/10 02:19:30;;;;;;;17.40;5.80;;;2.40;99.90;;;;;;4994214;28;20037;-85
2022/12/10 02:21:58;;;;;;;16.92;5.90;;;2.40;99.90;;;;;;4990327;28;20083;-86
2022/12/10 02:24:30;;;;;;;16.10;5.23;;;2.50;99.90;;;;;;4967035;28;20021;-85
2022/12/10 02:27:26;;;;;;;17.05;5.38;;;2.50;99.90;;;;;;4971989;28;20025;-85
2022/12/10 02:29:53;;;;;;;16.27;5.55;;;2.50;99.90;;;;;;4995618;28;20051;-85
2022/12/10 02:32:31;;;;;;;17.05;6.13;;;2.50;99.90;;;;;;4996190;28;20021;-86
2022/12/10 02:35:02;;;;;;;16.02;5.43;;;2.50;99.90;;;;;;4991776;28;20017;-85
2022/12/10 02:37:32;;;;;;;18.13;6.33;;;2.50;99.90;;;;;;4998180;28;20223;-85
2022/12/10 02:40:02;;;;;;;20.52;7.15;;;2.50;99.90;;;;;;4995682;28;20017;-85
2022/12/10 02:42:31;;;;;;;17.98;6.03;;;2.60;99.90;;;;;;4966525;28;20185;-85
2022/12/10 02:44:57;;;;;;;17.67;6.25;;;2.60;99.90;;;;;;5012029;28;20170;-85
2022/12/10 02:47:24;;;;;;;18.10;6.43;;;2.60;99.90;;;;;;4967432;28;20577;-86
2022/12/10 02:49:56;;;;;;;18.33;5.63;;;2.60;99.90;;;;;;5029103;28;20033;-85
2022/12/10 02:52:24;;;;;;;21.27;6.47;;;2.60;99.90;;;;;;4985506;28;20518;-85
2022/12/10 02:54:51;;;;;;;15.93;5.95;;;2.60;99.90;;;;;;5006850;28;20021;-85
2022/12/10 02:57:47;;;;;;;19.23;6.50;;;2.60;99.90;;;;;;4969872;28;20389;-85
2022/12/10 03:00:19;;;;;;;18.42;6.00;;;2.70;99.90;;;;;;4996729;28;20066;-85
2022/12/10 03:03:03;;;;;;;18.50;6.10;;;2.70;99.90;;;;;;5019837;28;20028;-85
2022/12/10 03:05:50;;;;;;;20.13;6.45;;;2.70;99.90;;;;;;4988862;28;20226;-85
2022/12/10 03:08:40;;;;;;;18.35;6.53;;;2.70;99.90;;;;;;5020630;28;20056;-85
2022/12/10 03:11:14;;;;;;;19.85;6.55;;;2.70;99.90;;;;;;4988383;28;20108;-85
2022/12/10 03:14:02;;;;;;;22.58;7.55;;;2.70;99.90;;;;;;4987139;28;20025;-85
2022/12/10 03:16:38;;;;;;;21.27;6.47;;;2.70;99.90;;;;;;4977613;28;20649;-85
2022/12/10 03:19:07;;;;;;;22.52;6.78;;;2.70;99.90;;;;;;4980195;28;20374;-85
2022/12/10 03:21:37;;;;;;;19.38;6.55;;;2.70;99.90;;;;;;5013759;28;20520;-85
2022/12/10 03:24:03;;;;;;;21.77;6.32;;;2.70;99.90;;;;;;5004565;28;20129;-85
2022/12/10 03:26:30;;;;;;;22.50;7.70;;;2.60;99.90;;;;;;4995685;28;20669;-85
2022/12/10 03:29:03;;;;;;;16.17;5.50;;;2.70;99.90;;;;;;4995571;28;20066;-85
2022/12/10 03:31:30;;;;;;;16.55;5.43;;;2.60;99.90;;;;;;4961458;28;20280;-85
2022/12/10 03:33:56;;;;;;;20.20;6.18;;;2.60;99.90;;;;;;5014792;28;20072;-85
2022/12/10 03:36:23;;;;;;;19.58;5.95;;;2.60;99.90;;;;;;4984030;28;20100;-85
2022/12/10 03:38:50;;;;;;;20.58;6.40;;;2.60;99.90;;;;;;5022965;28;20032;-85
2022/12/10 03:41:16;;;;;;;21.60;6.10;;;2.60;99.90;;;;;;4991611;28;20508;-85
2022/12/10 03:43:56;;;;;;;23.42;6.60;;;2.60;99.90;;;;;;5040663;28;20118;-85
2022/12/10 03:46:23;;;;;;;19.48;6.40;;;2.60;99.90;;;;;;4972179;28;20432;-85
2022/12/10 03:48:50;;;;;;;16.52;5.53;;;2.60;99.90;;;;;;4983832;28;20128;-85
2022/12/10 03:51:16;;;;;;;27.47;7.90;;;2.60;99.90;;;;;;4978673;28;20022;-85
2022/12/10 03:53:42;;;;;;;22.70;6.95;;;2.70;99.90;;;;;;4992002;28;20114;-85
2022/12/10 03:56:08;;;;;;;22.00;7.30;;;2.70;99.90;;;;;;5022228;28;20344;-85
2022/12/10 03:58:34;;;;;;;25.07;6.90;;;2.70;99.90;;;;;;4991602;28;20025;-85
2022/12/10 04:01:01;;;;;;;21.77;6.90;;;2.70;99.90;;;;;;4991511;28;20021;-85
2022/12/10 04:03:27;;;;;;;22.02;6.65;;;2.60;99.90;;;;;;4974072;28;20225;-85
2022/12/10 04:05:53;;;;;;;21.47;6.97;;;2.60;99.90;;;;;;5001885;28;20049;-85
2022/12/10 04:08:18;;;;;;;18.13;5.50;;;2.60;99.90;;;;;;5008553;28;20263;-85
2022/12/10 04:10:44;;;;;;;20.13;6.13;;;2.60;99.90;;;;;;5007664;28;20033;-84
2022/12/10 04:18:40;;;;;;;20.42;6.55;;;2.60;99.90;;;;;;5008851;28;20481;-85
2022/12/10 04:26:52;;;;;;;18.57;6.10;;;2.60;99.90;;;;;;5012092;28;20271;-85
2022/12/10 04:29:26;;;;;;;22.63;7.20;;;2.60;99.90;;;;;;4994012;28;20547;-85
2022/12/10 04:31:53;;;;;;;23.13;7.00;;;2.60;99.90;;;;;;5010919;28;20063;-85
2022/12/10 04:34:18;;;;;;;22.58;6.43;;;2.50;99.90;;;;;;4988737;28;20490;-85
2022/12/10 04:36:44;;;;;;;22.08;6.78;;;2.50;99.90;;;;;;5014751;28;20020;-85
2022/12/10 04:39:13;;;;;;;22.83;7.40;;;2.50;99.90;;;;;;5005213;28;20047;-85
2022/12/10 04:41:41;;;;;;;24.25;7.43;;;2.50;99.90;;;;;;4996592;28;20029;-85
2022/12/10 04:44:08;;;;;;;25.67;7.78;;;2.50;99.90;;;;;;5019405;28;20028;-85
2022/12/10 04:46:33;;;;;;;24.95;7.90;;;2.60;99.90;;;;;;5003826;28;20179;-85
2022/12/10 04:48:59;;;;;;;27.27;8.37;;;2.50;99.90;;;;;;4977343;28;20095;-85
2022/12/10 04:51:25;;;;;;;25.70;7.50;;;2.50;99.90;;;;;;5016444;28;20246;-85
2022/12/10 04:53:50;;;;;;;26.00;8.17;;;2.50;99.90;;;;;;5026274;28;20443;-85
2022/12/10 04:56:16;;;;;;;27.50;8.00;;;2.50;99.90;;;;;;5012892;28;20482;-85
2022/12/10 04:58:42;;;;;;;28.63;8.97;;;2.50;99.90;;;;;;5019956;28;20025;-85
2022/12/10 05:01:10;;;;;;;23.17;7.20;;;2.50;99.90;;;;;;5016277;28;20107;-86
2022/12/10 05:03:36;;;;;;;22.83;7.75;;;2.50;99.90;;;;;;4972353;28;21550;-85
2022/12/10 05:06:10;;;;;;;23.63;7.82;;;2.50;99.90;;;;;;4996125;28;20503;-85
2022/12/10 05:08:38;;;;;;;25.00;7.90;;;2.50;99.90;;;;;;5002822;28;20286;-85
2022/12/10 05:11:07;;;;;;;24.77;7.22;;;2.50;99.90;;;;;;5004605;28;20754;-85
2022/12/10 05:13:33;;;;;;;23.05;7.28;;;2.50;99.90;;;;;;4997543;28;20118;-85
2022/12/10 05:16:01;;;;;;;25.13;8.02;;;2.50;99.90;;;;;;5023428;28;20037;-86
2022/12/10 05:18:27;;;;;;;23.52;7.75;;;2.50;99.90;;;;;;5037689;28;20532;-85
2022/12/10 05:20:53;;;;;;;22.73;7.50;;;2.60;99.90;;;;;;4990487;28;20017;-86
2022/12/10 05:23:27;;;;;;;26.83;7.90;;;2.60;99.90;;;;;;5030995;28;20390;-86
2022/12/10 05:26:08;;;;;;;23.27;7.00;;;2.60;99.90;;;;;;5023361;28;20857;-85
2022/12/10 05:28:36;;;;;;;28.67;8.35;;;2.60;99.90;;;;;;5000091;28;20215;-85
2022/12/10 05:31:02;;;;;;;24.77;7.63;;;2.60;99.90;;;;;;4995489;28;20024;-85
2022/12/10 05:33:28;;;;;;;22.08;7.38;;;2.60;99.90;;;;;;4994940;28;20261;-85
2022/12/10 05:36:03;;;;;;;21.10;6.73;;;2.60;99.90;;;;;;4968990;28;20056;-85
2022/12/10 05:38:31;;;;;;;21.35;7.18;;;2.60;99.90;;;;;;5029560;28;20222;-84
2022/12/10 05:41:05;;;;;;;21.70;6.47;;;2.60;99.90;;;;;;4986413;28;20018;-85
2022/12/10 05:43:32;;;;;;;22.42;6.68;;;2.60;99.90;;;;;;5014199;28;20235;-85
2022/12/10 05:46:07;;;;;;;23.87;7.57;;;2.60;99.90;;;;;;5008389;28;20025;-85
2022/12/10 05:48:34;;;;;;;27.05;8.63;;;2.60;99.90;;;;;;5010792;28;20143;-85
2022/12/10 05:51:04;;;;;;;24.42;7.10;;;2.60;99.90;;;;;;4987099;28;20504;-85
2022/12/10 05:53:30;;;;;;;21.67;7.25;;;2.60;99.90;;;;;;5008139;28;20215;-85
2022/12/10 05:56:01;;;;;;;22.90;7.73;;;2.60;99.90;;;;;;4999767;28;20021;-85
2022/12/10 05:58:28;;;;;;;25.48;7.57;;;2.60;99.90;;;;;;4987238;28;20580;-85
2022/12/10 06:00:55;;;;;;;24.50;7.32;;;2.60;99.90;;;;;;4987600;28;20043;-85
2022/12/10 06:03:20;;;;;;;27.13;8.15;;;2.60;99.90;;;;;;4982709;28;20039;-85
2022/12/10 06:05:46;;;;;;;28.17;8.07;;;2.60;99.90;;;;;;4971088;28;20667;-85
2022/12/10 06:08:11;;;;;;;26.60;7.97;;;2.60;99.90;;;;;;4983833;28;20029;-85
2022/12/10 06:10:37;;;;;;;24.27;8.00;;;2.60;99.90;;;;;;4994985;28;20389;-85
2022/12/10 06:13:04;;;;;;;26.63;8.10;;;2.60;99.90;;;;;;5002677;28;20388;-85
2022/12/10 06:15:31;;;;;;;25.15;7.68;;;2.60;99.90;;;;;;4976559;28;20674;-86
2022/12/10 06:17:57;;;;;;;23.77;7.78;;;2.60;99.90;;;;;;4972577;28;20017;-85
2022/12/10 06:20:24;;;;;;;30.60;8.65;;;2.60;99.90;;;;;;5008079;28;20389;-85
2022/12/10 06:22:49;;;;;;;25.67;7.85;;;2.60;99.90;;;;;;4982222;28;20730;-85
2022/12/10 06:25:15;;;;;;;24.83;8.20;;;2.60;99.90;;;;;;4984364;28;20076;-85
2022/12/10 06:27:41;;;;;;;28.90;8.98;;;2.60;99.90;;;;;;4973173;28;20135;-85
2022/12/10 06:30:07;;;;;;;26.17;7.87;;;2.50;99.90;;;;;;4998507;28;20100;-85
2022/12/10 06:32:33;;;;;;;24.23;7.22;;;2.60;99.90;;;;;;4975839;28;20122;-85
2022/12/10 06:34:59;;;;;;;19.75;5.95;;;2.60;99.90;;;;;;4986425;28;20009;-86
2022/12/10 06:37:24;;;;;;;27.57;8.27;;;2.60;99.90;;;;;;4965993;28;20028;-85
2022/12/10 06:39:52;;;;;;;30.15;8.93;;;2.50;99.90;;;;;;4997119;28;20025;-85
2022/12/10 06:42:18;;;;;;;30.55;8.00;;;2.50;99.90;;;;;;5009008;28;20082;-86
2022/12/10 06:44:44;;;;;;;24.20;8.10;;;2.50;99.90;;;;;;4991123;28;20807;-86
2022/12/10 06:47:10;;;;;;;28.50;8.20;;;2.50;99.90;;;;;;4989847;28;20116;-86
2022/12/10 06:49:35;;;;;;;23.07;7.13;;;2.50;99.90;;;;;;4977140;28;20033;-86
2022/12/10 06:52:02;;;;;;;26.35;7.75;;;2.60;99.90;;;;;;4963432;28;20018;-85
2022/12/10 06:54:27;;;;;;;27.45;7.50;;;2.50;99.90;;;;;;4981046;28;20032;-86
2022/12/10 06:56:53;;;;;;;25.60;7.83;;;2.60;99.90;;;;;;5026407;28;20433;-86
2022/12/10 06:59:20;;;;;;;29.88;8.25;;;2.50;99.90;;;;;;5000973;28;20535;-85
2022/12/10 07:01:46;;;;;;;30.52;8.13;;;2.60;99.90;;;;;;5001410;28;20017;-85
2022/12/10 07:04:12;;;;;;;24.40;7.60;;;2.60;99.90;;;;;;4996959;28;20378;-85
2022/12/10 07:06:38;;;;;;;27.92;8.35;;;2.60;99.90;;;;;;4981250;28;20041;-85
2022/12/10 07:09:04;;;;;;;28.80;8.32;;;2.60;99.90;;;;;;4967366;28;21440;-85
2022/12/10 07:11:30;;;;;;;26.70;7.60;;;2.60;99.90;;;;;;5015181;28;20540;-84
2022/12/10 07:13:57;;;;;;;26.98;7.72;;;2.60;99.90;;;;;;5010962;28;20809;-85
2022/12/10 07:16:28;;;;;;;29.95;8.30;;;2.70;99.90;;;;;;5012125;28;20111;-85
2022/12/10 07:18:56;;;;;;;30.33;8.40;;;2.70;99.90;;;;;;5000649;28;20033;-85
2022/12/10 07:21:27;;;;;;;26.98;7.47;;;2.60;99.90;;;;;;4999711;28;20548;-85
2022/12/10 07:23:57;;;;;;;23.57;7.33;;;2.60;99.90;;;;;;4971297;28;20490;-85
2022/12/10 07:26:24;;;;;;;27.55;7.55;;;2.60;99.90;;;;;;4999735;28;22288;-84
2022/12/10 07:28:50;;;;;;;27.65;7.68;;;2.60;99.90;;;;;;4994728;28;21921;-84
2022/12/10 07:31:16;;;;;;;21.77;6.75;;;2.60;99.90;;;;;;5005850;28;20478;-85
2022/12/10 07:33:42;;;;;;;22.60;6.97;;;2.60;99.90;;;;;;4967139;28;20017;-85
2022/12/10 07:36:10;;;;;;;22.67;6.63;;;2.60;99.90;;;;;;4990456;28;20025;-85
2022/12/10 07:38:36;;;;;;;24.48;6.97;;;2.60;99.90;;;;;;4985480;28;20022;-85
2022/12/10 07:41:08;;;;;;;25.65;6.72;;;2.60;99.90;;;;;;4992773;28;20074;-85
2022/12/10 07:43:35;;;;;;;23.23;6.10;;;2.60;99.90;;;;;;4995333;28;20017;-86
2022/12/10 07:46:13;;;;;;;22.67;6.82;;;2.60;99.90;;;;;;5003147;28;20057;-85
2022/12/10 07:48:41;;;;;;;29.95;7.78;;;2.70;99.90;;;;;;5000050;28;20112;-85
2022/12/10 07:51:07;;;;;;;24.67;6.90;;;2.70;99.90;;;;;;5016834;28;20044;-85
2022/12/10 07:53:33;;;;;;;22.10;5.85;;;2.70;99.90;;;;;;4981998;28;20482;-86
2022/12/10 07:55:59;;;;;;;23.30;7.87;;;2.60;99.90;;;;;;4993727;28;20336;-86
2022/12/10 07:58:24;;;;;;;26.88;7.45;;;2.60;99.90;;;;;;5007540;28;20048;-85
2022/12/10 08:00:50;;;;;;;19.30;5.60;;;2.60;99.90;;;;;;4986034;28;20266;-84
2022/12/10 08:03:16;;;;;;;21.60;6.35;;;2.70;99.90;;;;;;4999108;28;20057;-85
2022/12/10 08:05:42;;;;;;;18.63;5.80;;;2.60;99.90;;;;;;4994585;28;20056;-85
2022/12/10 08:08:08;;;;;;;20.00;5.77;;;2.60;99.90;;;;;;4972240;28;20773;-85
2022/12/10 08:10:38;;;;;;;17.48;5.53;;;2.60;99.90;;;;;;5010360;28;20124;-85
2022/12/10 08:13:05;;;;;;;22.27;6.10;;;2.60;99.90;;;;;;4983009;28;20030;-85
2022/12/10 08:15:31;;;;;;;20.63;6.50;;;2.70;99.90;;;;;;4999213;28;20032;-85
2022/12/10 08:17:57;;;;;;;23.17;6.97;;;2.60;99.90;;;;;;5006408;28;20943;-85
2022/12/10 08:20:24;;;;;;;19.30;6.13;;;2.60;99.90;;;;;;5004637;28;20609;-85
2022/12/10 08:22:50;;;;;;;21.58;6.20;;;2.70;99.90;;;;;;4955301;28;20670;-84
2022/12/10 08:25:16;;;;;;;17.45;5.55;;;2.60;99.90;;;;;;4996910;28;20456;-86
2022/12/10 08:27:42;;;;;;;19.07;5.90;;;2.60;99.90;;;;;;4980595;28;21384;-86
2022/12/10 08:30:08;;;;;;;18.33;5.40;;;2.70;99.90;;;;;;4986108;28;20381;-85
2022/12/10 08:32:34;;;;;;;19.88;6.68;;;2.60;99.90;;;;;;4980164;28;20036;-86
2022/12/10 08:35:00;;;;;;;23.43;6.67;;;2.60;99.90;;;;;;5008573;28;20013;-86
2022/12/10 08:37:26;;;;;;;24.13;7.10;;;2.60;99.90;;;;;;5015498;28;20309;-85
2022/12/10 08:39:51;;;;;;;22.27;5.97;;;2.60;99.90;;;;;;4942614;28;20131;-85
2022/12/10 08:42:17;;;;;;;25.93;7.00;;;2.60;99.90;;;;;;5001388;28;20584;-85
2022/12/10 08:44:42;;;;;;;25.13;7.03;;;2.60;99.90;;;;;;4981750;28;20036;-85
2022/12/10 08:47:08;;;;;;;17.55;5.65;;;2.60;99.90;;;;;;4972813;28;20036;-85
2022/12/10 08:49:34;;;;;;;24.23;7.45;;;2.60;99.90;;;;;;4989016;28;20061;-85
2022/12/10 08:52:00;;;;;;;21.10;6.17;;;2.60;99.90;;;;;;5008870;28;20033;-85
2022/12/10 08:54:26;;;;;;;20.73;5.88;;;2.60;99.90;;;;;;4985547;28;20017;-84
2022/12/10 08:56:52;;;;;;;21.05;5.90;;;2.60;99.90;;;;;;5006291;28;20032;-85
2022/12/10 08:59:17;;;;;;;17.83;5.47;;;2.60;99.90;;;;;;4972915;28;20029;-85
2022/12/10 09:01:43;;;;;;;20.57;6.13;;;2.60;99.90;;;;;;5013786;28;20033;-85
2022/12/10 09:04:09;;;;;;;17.63;6.05;;;2.60;99.90;;;;;;4958881;28;20314;-85
2022/12/10 09:06:35;;;;;;;23.33;6.95;;;2.60;99.90;;;;;;4980274;28;20026;-85
2022/12/10 09:09:01;;;;;;;20.53;5.83;;;2.60;99.90;;;;;;5007274;28;20029;-85
2022/12/10 09:11:32;;;;;;;20.23;6.38;;;2.70;99.90;;;;;;4986545;28;20516;-85
2022/12/10 09:13:59;;;;;;;22.75;6.20;;;2.70;99.90;;;;;;4983600;28;20172;-85
2022/12/10 09:16:34;;;;;;;23.48;7.22;;;2.70;99.90;;;;;;5006300;28;20005;-85
2022/12/10 09:19:00;;;;;;;29.33;8.35;;;2.70;99.90;;;;;;4991000;28;20210;-85
2022/12/10 09:21:28;;;;;;;26.77;7.13;;;2.80;99.90;;;;;;5001356;28;20449;-85
2022/12/10 09:23:54;;;;;;;23.92;6.72;;;2.80;99.90;;;;;;5018237;28;20430;-85
2022/12/10 09:26:20;;;;;;;22.30;6.70;;;2.80;99.90;;;;;;4975075;28;20031;-86
2022/12/10 09:28:47;;;;;;;20.90;6.68;;;2.80;99.90;;;;;;5019919;28;20473;-85
2022/12/10 09:31:16;;;;;;;19.90;6.37;;;2.80;99.90;;;;;;4985434;28;20226;-85
2022/12/10 09:33:42;;;;;;;19.73;5.78;;;2.80;99.90;;;;;;5007981;28;20017;-85
2022/12/10 09:36:09;;;;;;;20.88;6.68;;;2.80;99.90;;;;;;4988486;28;20025;-85
2022/12/10 09:38:40;;;;;;;23.33;6.65;;;2.80;99.90;;;;;;5009027;28;20052;-85
2022/12/10 09:41:12;;;;;;;18.73;5.80;;;2.80;99.90;;;;;;4972470;28;20052;-85
2022/12/10 09:43:53;;;;;;;19.97;5.87;;;2.80;99.90;;;;;;4980148;28;20033;-85
2022/12/10 09:46:57;;;;;;;21.90;5.53;;;2.80;99.90;;;;;;4998948;28;20045;-84
2022/12/10 09:50:00;;;;;;;18.25;5.35;;;2.80;99.90;;;;;;5006628;28;20062;-85
2022/12/10 09:52:34;;;;;;;21.80;6.13;;;2.80;99.90;;;;;;4994175;28;20088;-84
2022/12/10 09:55:04;;;;;;;19.77;5.88;;;2.80;99.90;;;;;;5007910;28;20432;-85
2022/12/10 09:57:43;;;;;;;19.13;6.23;;;2.90;99.90;;;;;;4994361;28;20028;-85
2022/12/10 10:00:37;;;;;;;21.48;7.15;;;2.90;99.90;;;;;;4977475;28;20143;-85
2022/12/10 10:03:04;;;;;;;21.88;7.25;;;2.90;99.90;;;;;;5019628;28;20029;-85
2022/12/10 10:05:33;;;;;;;20.75;6.68;;;2.90;99.90;;;;;;4991664;28;20055;-84
2022/12/10 10:08:02;;;;;;;17.83;5.95;;;2.90;99.90;;;;;;4994511;28;20043;-85
2022/12/10 10:10:33;;;;;;;16.43;5.00;;;3.00;99.90;;;;;;5002200;28;20441;-85
2022/12/10 10:13:07;;;;;;;18.02;6.05;;;3.00;99.90;;;;;;5001089;28;20087;-85
2022/12/10 10:15:35;;;;;;;25.17;7.28;;;3.00;99.90;;;;;;4971596;28;20032;-85
2022/12/10 10:18:17;;;;;;;22.50;7.18;;;3.00;99.90;;;;;;4998812;28;20083;-84
2022/12/10 10:20:43;;;;;;;26.65;7.85;;;3.00;99.90;;;;;;4995662;28;20033;-85
2022/12/10 10:23:14;;;;;;;23.50;6.70;;;3.00;99.90;;;;;;5003109;28;20340;-84
2022/12/10 10:25:40;;;;;;;25.35;7.15;;;3.00;99.90;;;;;;5022091;28;20028;-84
2022/12/10 10:28:07;;;;;;;28.50;7.70;;;3.00;99.90;;;;;;5026262;28;20308;-84
2022/12/10 10:30:33;;;;;;;23.17;7.45;;;3.00;99.90;;;;;;4992091;28;20048;-84
2022/12/10 10:33:09;;;;;;;19.23;5.57;;;3.00;99.90;;;;;;5002961;28;20580;-85
2022/12/10 10:35:46;;;;;;;23.02;6.97;;;3.10;99.90;;;;;;4996039;28;20013;-84
2022/12/10 10:38:30;;;;;;;19.58;5.95;;;3.10;99.90;;;;;;5018520;28;20053;-85
2022/12/10 10:41:02;;;;;;;21.58;6.55;;;3.10;99.90;;;;;;5011389;28;20356;-85
2022/12/10 10:43:31;;;;;;;24.70;7.93;;;3.10;99.90;;;;;;4999575;28;20025;-84
2022/12/10 10:46:01;;;;;;;24.17;6.55;;;3.10;99.90;;;;;;4986737;28;20037;-84
2022/12/10 10:48:28;;;;;;;25.00;7.07;;;3.10;99.90;;;;;;5011180;28;20036;-85
2022/12/10 10:51:08;;;;;;;16.13;4.85;;;3.20;99.90;;;;;;5013324;28;20683;-84
2022/12/10 10:53:52;;;;;;;23.80;7.20;;;3.20;99.90;;;;;;5011317;28;20140;-84
2022/12/10 10:56:39;;;;;;;23.60;7.17;;;3.20;99.90;;;;;;4990886;28;20393;-85
2022/12/10 10:59:19;;;;;;;21.77;6.80;;;3.20;99.90;;;;;;4991945;28;20029;-84
2022/12/10 11:01:49;;;;;;;20.55;6.93;;;3.20;99.90;;;;;;4972620;28;20025;-84
2022/12/10 11:04:17;;;;;;;24.42;7.47;;;3.20;99.90;;;;;;5039392;28;20198;-83
2022/12/10 11:06:44;;;;;;;21.77;7.38;;;3.30;99.90;;;;;;4984358;28;20048;-84
2022/12/10 11:09:27;;;;;;;18.20;5.97;;;3.20;99.90;;;;;;5004001;28;20033;-85
2022/12/10 11:11:59;;;;;;;22.17;7.07;;;3.30;99.90;;;;;;4988857;28;21367;-84
2022/12/10 11:14:30;;;;;;;18.10;5.88;;;3.30;99.90;;;;;;4992421;28;20048;-84
2022/12/10 11:17:24;;;;;;;22.25;6.10;;;3.30;99.90;;;;;;4999505;28;20044;-84
2022/12/10 11:19:58;;;;;;;21.63;6.00;;;3.30;99.90;;;;;;5015857;28;20042;-84
2022/12/10 11:22:30;;;;;;;23.27;7.57;;;3.30;99.90;;;;;;5012099;28;20033;-84
2022/12/10 11:24:56;;;;;;;26.00;8.13;;;3.40;99.90;;;;;;4987994;28;20394;-84
2022/12/10 11:27:46;;;;;;;27.05;8.82;;;3.40;99.90;;;;;;4984789;28;20029;-84
2022/12/10 11:30:19;;;;;;;18.58;6.32;;;3.40;99.90;;;;;;5015663;28;20041;-84
2022/12/10 11:32:48;;;;;;;22.35;7.03;;;3.40;99.90;;;;;;4969241;28;20926;-84
2022/12/10 11:35:45;;;;;;;23.43;6.50;;;3.40;99.90;;;;;;5000214;28;20151;-84
2022/12/10 11:38:21;;;;;;;20.63;6.72;;;3.50;99.90;;;;;;4987463;28;20021;-84
2022/12/10 11:41:02;;;;;;;20.35;6.25;;;3.50;99.90;;;;;;5002581;28;20017;-84
2022/12/10 11:43:46;;;;;;;22.92;6.18;;;3.50;99.90;;;;;;5017105;28;20025;-84
2022/12/10 11:46:39;;;;;;;22.88;7.18;;;3.60;99.90;;;;;;5000588;28;20055;-84
2022/12/10 11:49:39;;;;;;;21.70;6.70;;;3.70;99.90;;;;;;4965809;28;20427;-83
2022/12/10 11:52:42;;;;;;;21.33;6.90;;;3.70;99.90;;;;;;4968563;28;20765;-84
2022/12/10 11:55:46;;;;;;;29.90;8.88;;;3.70;99.90;;;;;;4983107;28;20160;-84
2022/12/10 11:58:57;;;;;;;22.48;7.72;;;3.80;99.90;;;;;;5000075;28;20244;-83
2022/12/10 12:01:39;;;;;;;23.80;6.68;;;3.80;99.90;;;;;;5016551;28;20440;-83
2022/12/10 12:04:51;;;;;;;19.60;6.27;;;3.80;99.90;;;;;;4970124;28;20687;-84
2022/12/10 12:07:41;;;;;;;21.40;6.53;;;3.80;99.90;;;;;;4968894;28;20036;-84
2022/12/10 12:10:27;;;;;;;19.33;6.10;;;3.90;99.90;;;;;;4996104;28;20285;-83
2022/12/10 12:13:09;;;;;;;19.98;6.32;;;3.90;99.90;;;;;;4993964;28;20025;-83
2022/12/10 12:15:57;;;;;;;21.77;5.93;;;3.90;99.90;;;;;;5021966;28;20565;-84
2022/12/10 12:18:51;;;;;;;19.17;5.50;;;3.90;99.90;;;;;;5003904;28;20059;-84
2022/12/10 12:21:17;;;;;;;17.90;5.50;;;3.90;99.90;;;;;;4976982;28;20529;-84
2022/12/10 12:23:52;;;;;;;15.85;5.90;;;3.90;99.90;;;;;;4990057;28;20025;-83
2022/12/10 12:26:28;;;;;;;17.77;5.22;;;4.00;99.90;;;;;;5016820;28;20053;-83
2022/12/10 12:29:01;;;;;;;18.58;6.00;;;4.00;99.90;;;;;;5010446;28;20067;-83
2022/12/10 12:31:35;;;;;;;18.67;5.90;;;4.00;99.90;;;;;;5009280;28;20017;-83
2022/12/10 12:34:00;;;;;;;18.35;5.57;;;4.00;99.90;;;;;;4970060;28;20025;-82
2022/12/10 12:36:34;;;;;;;19.80;5.82;;;4.10;99.90;;;;;;5021458;28;20065;-83
2022/12/10 12:39:17;;;;;;;18.90;5.97;;;4.10;99.90;;;;;;4983931;28;20029;-83
2022/12/10 12:42:03;;;;;;;22.02;6.57;;;4.10;99.90;;;;;;5039752;28;20025;-83
2022/12/10 12:44:56;;;;;;;20.73;6.25;;;4.10;99.90;;;;;;4999385;28;20366;-83
2022/12/10 12:47:28;;;;;;;19.17;5.70;;;4.10;99.90;;;;;;5021957;28;21681;-83
2022/12/10 12:49:57;;;;;;;21.58;5.80;;;4.10;99.90;;;;;;4978045;28;20059;-83
2022/12/10 12:52:33;;;;;;;19.83;5.57;;;4.20;99.90;;;;;;5035223;28;20030;-83
2022/12/10 12:55:06;;;;;;;17.95;6.40;;;4.20;99.90;;;;;;4999079;28;20099;-83
2022/12/10 12:58:15;;;;;;;21.80;7.13;;;4.10;99.90;;;;;;5030662;28;20048;-83
2022/12/10 13:00:46;;;;;;;23.25;6.97;;;4.10;99.90;;;;;;4959343;28;20073;-83
2022/12/10 13:03:18;;;;;;;20.17;6.20;;;4.10;99.90;;;;;;5007486;28;20106;-83
2022/12/10 13:05:45;;;;;;;19.37;5.97;;;4.10;99.90;;;;;;4985825;28;20048;-83
2022/12/10 13:08:20;;;;;;;24.10;7.90;;;4.10;99.90;;;;;;5013793;28;20028;-83
2022/12/10 13:11:10;;;;;;;19.75;6.47;;;4.10;99.90;;;;;;5030125;28;20037;-83
2022/12/10 13:13:38;;;;;;;17.33;5.72;;;4.10;99.90;;;;;;4978951;28;20108;-83
2022/12/10 13:16:43;;;;;;;19.63;6.28;;;4.10;99.90;;;;;;4995722;28;20029;-83
2022/12/10 13:19:15;;;;;;;23.10;6.67;;;4.10;99.90;;;;;;5030874;28;20484;-83
2022/12/10 13:22:05;;;;;;;21.38;6.47;;;4.10;99.90;;;;;;4974031;28;20030;-82